createdAt,value
2018-04-01T00:01:56.364Z,98435.14
2018-04-01T00:04:24.159Z,98440.08
2018-04-01T00:06:51.936Z,98439.94
2018-04-01T00:09:29.732Z,98438.63
2018-04-01T00:11:57.612Z,98438.59
2018-04-01T00:14:25.433Z,98439.27
2018-04-01T00:16:53.262Z,98439.69
2018-04-01T00:19:21.039Z,98446.92
2018-04-01T00:21:48.855Z,98451.84
2018-04-01T00:24:16.628Z,98446.52
2018-04-01T00:26:44.441Z,98441.41
2018-04-01T00:29:12.228Z,98444.05
2018-04-01T00:31:40.029Z,98444.71
2018-04-01T00:34:07.840Z,98444.84
2018-04-01T00:36:35.608Z,98449.59
2018-04-01T00:39:03.488Z,98450.53
2018-04-01T00:41:31.349Z,98451.20
2018-04-01T00:43:59.133Z,98444.30
2018-04-01T00:46:26.995Z,98446.42
2018-04-01T00:48:57.739Z,98454.86
2018-04-01T00:51:25.523Z,98459.38
2018-04-01T00:53:53.344Z,98452.12
2018-04-01T00:56:21.095Z,98458.20
2018-04-01T00:58:48.907Z,98457.41
2018-04-01T01:01:16.803Z,98452.63
2018-04-01T01:03:44.601Z,98450.88
2018-04-01T01:06:12.385Z,98453.78
2018-04-01T01:08:40.202Z,98443.97
2018-04-01T01:11:08.043Z,98447.19
2018-04-01T01:13:35.832Z,98449.16
2018-04-01T01:16:03.950Z,98444.76
2018-04-01T01:18:31.731Z,98452.58
2018-04-01T01:20:59.553Z,98450.31
2018-04-01T01:23:27.356Z,98456.56
2018-04-01T01:25:55.228Z,98450.58
2018-04-01T01:28:23.003Z,98447.66
2018-04-01T01:30:50.801Z,98445.80
2018-04-01T01:33:18.577Z,98450.33
2018-04-01T01:35:46.477Z,98435.64
2018-04-01T01:38:14.272Z,98443.05
2018-04-01T01:40:42.063Z,98441.62
2018-04-01T01:43:09.885Z,98445.73
2018-04-01T01:45:37.697Z,98443.73
2018-04-01T01:48:05.512Z,98437.66
2018-04-01T01:50:33.322Z,98441.13
2018-04-01T01:53:01.138Z,98445.08
2018-04-01T01:55:28.972Z,98445.89
2018-04-01T01:57:56.787Z,98440.73
2018-04-01T02:00:24.578Z,98455.31
2018-04-01T02:02:52.516Z,98454.52
2018-04-01T02:05:20.302Z,98448.86
2018-04-01T02:07:48.099Z,98453.22
2018-04-01T02:10:15.919Z,98454.39
2018-04-01T02:12:43.718Z,98446.19
2018-04-01T02:15:11.575Z,98450.57
2018-04-01T02:17:39.377Z,98451.23
2018-04-01T02:20:07.244Z,98453.34
2018-04-01T02:22:35.036Z,98448.97
2018-04-01T02:25:02.904Z,98465.91
2018-04-01T02:27:30.756Z,98461.03
2018-04-01T02:29:58.548Z,98466.33
2018-04-01T02:32:26.327Z,98473.06
2018-04-01T02:34:54.103Z,98471.62
2018-04-01T02:37:21.877Z,98466.18
2018-04-01T02:39:49.769Z,98471.75
2018-04-01T02:42:17.555Z,98477.20
2018-04-01T02:44:45.416Z,98482.20
2018-04-01T02:47:13.282Z,98487.80
2018-04-01T02:49:41.130Z,98496.23
2018-04-01T02:52:08.896Z,98487.39
2018-04-01T02:54:36.701Z,98490.17
2018-04-01T02:57:04.495Z,98488.86
2018-04-01T02:59:32.338Z,98490.98
2018-04-01T03:02:00.126Z,98497.45
2018-04-01T03:04:27.918Z,98506.16
2018-04-01T03:06:55.717Z,98499.56
2018-04-01T03:09:23.620Z,98499.05
2018-04-01T03:11:51.493Z,98508.16
2018-04-01T03:14:19.324Z,98502.34
2018-04-01T03:16:47.172Z,98510.53
2018-04-01T03:19:15.001Z,98509.74
2018-04-01T03:21:42.784Z,98500.88
2018-04-01T03:24:10.635Z,98505.50
2018-04-01T03:26:38.425Z,98503.67
2018-04-01T03:29:06.283Z,98506.32
2018-04-01T03:31:34.073Z,98506.42
2018-04-01T03:34:01.906Z,98510.00
2018-04-01T03:36:29.870Z,98505.25
2018-04-01T03:38:57.673Z,98512.11
2018-04-01T03:41:25.498Z,98511.86
2018-04-01T03:43:53.262Z,98522.68
2018-04-01T03:46:21.153Z,98525.08
2018-04-01T03:48:48.993Z,98526.79
2018-04-01T03:51:16.795Z,98523.75
2018-04-01T03:53:45.053Z,98529.29
2018-04-01T03:56:14.159Z,98532.08
2018-04-01T03:58:41.968Z,98536.19
2018-04-01T04:01:09.761Z,98541.72
2018-04-01T04:03:37.602Z,98545.43
2018-04-01T04:06:05.430Z,98546.89
2018-04-01T04:08:33.214Z,98554.03
2018-04-01T04:11:01.079Z,98547.54
2018-04-01T04:13:28.906Z,98555.33
2018-04-01T04:15:56.749Z,98553.75
2018-04-01T04:18:24.581Z,98555.72
2018-04-01T04:20:52.444Z,98564.19
2018-04-01T04:23:20.275Z,98563.94
2018-04-01T04:25:48.055Z,98568.83
2018-04-01T04:28:15.852Z,98582.16
2018-04-01T04:30:43.634Z,98582.30
2018-04-01T04:33:11.779Z,98573.58
2018-04-01T04:35:39.660Z,98586.02
2018-04-01T04:38:07.551Z,98588.91
2018-04-01T04:40:35.325Z,98584.16
2018-04-01T04:43:03.113Z,98579.16
2018-04-01T04:45:30.924Z,98585.76
2018-04-01T04:47:58.754Z,98590.12
2018-04-01T04:50:26.558Z,98593.80
2018-04-01T04:52:54.374Z,98603.59
2018-04-01T04:55:22.205Z,98601.09
2018-04-01T04:57:49.986Z,98613.52
2018-04-01T05:00:17.771Z,98612.31
2018-04-01T05:02:45.627Z,98614.55
2018-04-01T05:05:13.764Z,98618.92
2018-04-01T05:07:41.534Z,98612.59
2018-04-01T05:10:09.370Z,98614.02
2018-04-01T05:12:37.145Z,98623.02
2018-04-01T05:15:04.942Z,98628.31
2018-04-01T05:17:32.726Z,98626.20
2018-04-01T05:20:00.551Z,98629.49
2018-04-01T05:22:28.392Z,98634.92
2018-04-01T05:24:56.157Z,98639.41
2018-04-01T05:27:24.013Z,98646.41
2018-04-01T05:29:51.801Z,98645.05
2018-04-01T05:32:19.918Z,98645.88
2018-04-01T05:34:47.745Z,98648.23
2018-04-01T05:37:15.532Z,98658.70
2018-04-01T05:39:43.407Z,98656.55
2018-04-01T05:42:11.207Z,98664.77
2018-04-01T05:44:39.008Z,98654.44
2018-04-01T05:47:06.841Z,98659.87
2018-04-01T05:49:34.623Z,98667.42
2018-04-01T05:52:02.474Z,98651.95
2018-04-01T05:54:30.336Z,98656.06
2018-04-01T05:56:58.133Z,98661.74
2018-04-01T05:59:25.937Z,98659.39
2018-04-01T06:01:53.846Z,98661.36
2018-04-01T06:04:21.754Z,98673.00
2018-04-01T06:06:49.577Z,98667.44
2018-04-01T06:09:17.387Z,98672.77
2018-04-01T06:11:45.149Z,98671.83
2018-04-01T06:14:12.949Z,98667.48
2018-04-01T06:16:40.727Z,98679.09
2018-04-01T06:19:08.577Z,98679.48
2018-04-01T06:21:36.427Z,98677.38
2018-04-01T06:24:04.262Z,98677.91
2018-04-01T06:26:32.090Z,98678.69
2018-04-01T06:28:59.885Z,98679.73
2018-04-01T06:31:27.749Z,98682.11
2018-04-01T06:33:55.576Z,98685.45
2018-04-01T06:36:23.358Z,98678.02
2018-04-01T06:38:51.549Z,98686.38
2018-04-01T06:41:19.456Z,98690.98
2018-04-01T06:43:47.232Z,98694.80
2018-04-01T06:46:15.015Z,98682.27
2018-04-01T06:48:42.786Z,98691.39
2018-04-01T06:51:10.584Z,98699.08
2018-04-01T06:53:38.720Z,98696.56
2018-04-01T06:56:06.535Z,98693.78
2018-04-01T06:58:34.305Z,98699.52
2018-04-01T07:01:02.189Z,98702.16
2018-04-01T07:03:29.986Z,98697.12
2018-04-01T07:05:57.787Z,98698.16
2018-04-01T07:08:25.579Z,98706.08
2018-04-01T07:10:53.598Z,98709.80
2018-04-01T07:13:21.393Z,98716.52
2018-04-01T07:15:49.192Z,98716.17
2018-04-01T07:18:17.046Z,98717.89
2018-04-01T07:20:44.913Z,98718.42
2018-04-01T07:23:12.702Z,98717.35
2018-04-01T07:25:40.486Z,98722.50
2018-04-01T07:28:08.243Z,98722.48
2018-04-01T07:30:36.049Z,98719.31
2018-04-01T07:33:03.984Z,98721.84
2018-04-01T07:35:31.795Z,98720.14
2018-04-01T07:37:59.565Z,98725.05
2018-04-01T07:40:27.329Z,98722.92
2018-04-01T07:42:55.109Z,98736.16
2018-04-01T07:45:22.885Z,98738.66
2018-04-01T07:47:50.828Z,98742.23
2018-04-01T07:50:18.616Z,98741.45
2018-04-01T07:52:46.436Z,98737.33
2018-04-01T07:55:14.212Z,98739.73
2018-04-01T07:57:42.020Z,98755.08
2018-04-01T08:00:09.829Z,98751.91
2018-04-01T08:02:37.741Z,98754.54
2018-04-01T08:05:05.527Z,98753.59
2018-04-01T08:07:33.338Z,98757.02
2018-04-01T08:10:01.147Z,98753.34
2018-04-01T08:12:28.929Z,98750.70
2018-04-01T08:14:56.800Z,98761.79
2018-04-01T08:17:24.588Z,98750.86
2018-04-01T08:19:52.405Z,98758.41
2018-04-01T08:22:20.185Z,98745.86
2018-04-01T08:24:47.980Z,98761.59
2018-04-01T08:27:15.819Z,98771.25
2018-04-01T08:29:43.744Z,98775.76
2018-04-01T08:32:11.591Z,98770.35
2018-04-01T08:34:39.461Z,98781.73
2018-04-01T08:37:07.237Z,98783.98
2018-04-01T08:39:35.121Z,98791.00
2018-04-01T08:42:02.991Z,98788.23
2018-04-01T08:44:30.773Z,98789.81
2018-04-01T08:46:58.560Z,98794.32
2018-04-01T08:49:26.376Z,98800.14
2018-04-01T08:51:54.672Z,98800.14
2018-04-01T08:54:22.496Z,98800.29
2018-04-01T08:56:50.275Z,98798.97
2018-04-01T08:59:18.189Z,98804.13
2018-04-01T09:01:45.924Z,98808.74
2018-04-01T09:04:13.719Z,98811.39
2018-04-01T09:06:41.596Z,98817.88
2018-04-01T09:09:09.470Z,98819.87
2018-04-01T09:11:37.303Z,98814.83
2018-04-01T09:14:05.241Z,98822.66
2018-04-01T09:16:33.056Z,98834.97
2018-04-01T09:19:00.841Z,98835.36
2018-04-01T09:21:28.629Z,98824.63
2018-04-01T09:23:56.433Z,98833.89
2018-04-01T09:26:24.464Z,98838.36
2018-04-01T09:28:52.248Z,98852.66
2018-04-01T09:31:20.052Z,98854.13
2018-04-01T09:33:47.834Z,98846.30
2018-04-01T09:36:15.638Z,98845.80
2018-04-01T09:38:43.563Z,98859.73
2018-04-01T09:41:11.504Z,98863.42
2018-04-01T09:43:39.370Z,98876.80
2018-04-01T09:46:07.155Z,98875.97
2018-04-01T09:48:34.932Z,98884.19
2018-04-01T09:51:02.768Z,98891.08
2018-04-01T09:53:30.602Z,98890.84
2018-04-01T09:55:58.455Z,98889.13
2018-04-01T09:58:26.662Z,98886.87
2018-04-01T10:01:00.941Z,98899.32
2018-04-01T10:03:29.266Z,98888.97
2018-04-01T10:05:57.588Z,98890.81
2018-04-01T10:08:25.960Z,98896.52
2018-04-01T10:10:54.288Z,98890.33
2018-04-01T10:13:22.649Z,98895.64
2018-04-01T10:15:51.017Z,98897.34
2018-04-01T10:18:19.361Z,98899.31
2018-04-01T10:20:47.668Z,98892.30
2018-04-01T10:23:16.063Z,98903.83
2018-04-01T10:25:44.482Z,98905.53
2018-04-01T10:28:12.870Z,98903.83
2018-04-01T10:30:41.227Z,98899.86
2018-04-01T10:33:09.566Z,98912.47
2018-04-01T10:35:37.920Z,98907.06
2018-04-01T10:38:06.376Z,98903.48
2018-04-01T10:40:34.729Z,98917.52
2018-04-01T10:43:03.050Z,98921.09
2018-04-01T10:45:31.398Z,98916.88
2018-04-01T10:47:59.746Z,98917.52
2018-04-01T10:50:28.186Z,98923.75
2018-04-01T10:52:56.597Z,98905.88
2018-04-01T10:55:24.464Z,98913.57
2018-04-01T10:57:52.235Z,98910.36
2018-04-01T11:00:20.087Z,98919.37
2018-04-01T11:02:47.901Z,98929.47
2018-04-01T11:05:15.712Z,98917.02
2018-04-01T11:07:43.508Z,98914.61
2018-04-01T11:10:11.316Z,98918.86
2018-04-01T11:12:39.125Z,98928.39
2018-04-01T11:15:06.983Z,98933.42
2018-04-01T11:17:35.123Z,98930.23
2018-04-01T11:20:02.906Z,98924.82
2018-04-01T11:22:30.712Z,98929.05
2018-04-01T11:24:58.541Z,98927.58
2018-04-01T11:27:26.378Z,98942.97
2018-04-01T11:29:54.180Z,98921.88
2018-04-01T11:32:21.984Z,98933.16
2018-04-01T11:34:49.776Z,98936.61
2018-04-01T11:37:17.582Z,98937.81
2018-04-01T11:39:45.373Z,98917.02
2018-04-01T11:42:13.166Z,98925.34
2018-04-01T11:44:41.007Z,98930.47
2018-04-01T11:47:08.854Z,98923.92
2018-04-01T11:49:36.649Z,98928.20
2018-04-01T11:52:04.421Z,98931.51
2018-04-01T11:54:32.207Z,98939.11
2018-04-01T11:56:59.996Z,98933.25
2018-04-01T11:59:27.843Z,98945.86
2018-04-01T12:01:55.669Z,98951.38
2018-04-01T12:04:23.445Z,98955.12
2018-04-01T12:06:51.265Z,98965.06
2018-04-01T12:09:19.076Z,98968.40
2018-04-01T12:11:46.864Z,98970.38
2018-04-01T12:14:14.706Z,98967.52
2018-04-01T12:16:42.484Z,98966.76
2018-04-01T12:19:10.328Z,98966.69
2018-04-01T12:21:38.148Z,98977.77
2018-04-01T12:24:05.968Z,98977.17
2018-04-01T12:26:33.746Z,98969.38
2018-04-01T12:29:01.566Z,98974.41
2018-04-01T12:31:31.143Z,98962.69
2018-04-01T12:33:58.954Z,98965.64
2018-04-01T12:36:26.750Z,98970.16
2018-04-01T12:38:54.722Z,98957.30
2018-04-01T12:41:22.485Z,98961.98
2018-04-01T12:43:50.365Z,98969.61
2018-04-01T12:46:18.244Z,98972.78
2018-04-01T12:48:46.009Z,98975.28
2018-04-01T12:51:13.812Z,98976.84
2018-04-01T12:53:41.646Z,98978.19
2018-04-01T12:56:09.447Z,98976.50
2018-04-01T12:58:37.219Z,98979.70
2018-04-01T13:01:05.064Z,98975.75
2018-04-01T13:03:32.830Z,98978.91
2018-04-01T13:06:00.699Z,98974.86
2018-04-01T13:08:28.484Z,98977.95
2018-04-01T13:10:56.275Z,98974.36
2018-04-01T13:13:24.073Z,98984.12
2018-04-01T13:15:51.851Z,98975.41
2018-04-01T13:18:19.700Z,98977.23
2018-04-01T13:20:47.588Z,98975.48
2018-04-01T13:23:15.618Z,98984.02
2018-04-01T13:25:43.408Z,98994.55
2018-04-01T13:28:11.249Z,98992.99
2018-04-01T13:33:31.372Z,99003.74
2018-04-01T13:35:59.144Z,98999.85
2018-04-01T13:38:26.928Z,98998.63
2018-04-01T13:40:54.693Z,98999.86
2018-04-01T13:43:22.489Z,99005.42
2018-04-01T13:45:50.265Z,99005.25
2018-04-01T13:48:18.136Z,99012.52
2018-04-01T13:50:45.958Z,99004.36
2018-04-01T13:53:13.764Z,99014.86
2018-04-01T13:55:41.612Z,99007.93
2018-04-01T13:58:09.415Z,99006.88
2018-04-01T14:00:37.216Z,99026.30
2018-04-01T14:03:05.014Z,99018.61
2018-04-01T14:05:32.997Z,99022.76
2018-04-01T14:08:00.764Z,99021.83
2018-04-01T14:10:28.562Z,99028.98
2018-04-01T14:12:56.335Z,99034.70
2018-04-01T14:15:24.153Z,99034.15
2018-04-01T14:17:51.933Z,99037.74
2018-04-01T14:20:19.723Z,99039.86
2018-04-01T14:22:47.488Z,99044.60
2018-04-01T14:25:15.309Z,99046.13
2018-04-01T14:27:43.129Z,99048.98
2018-04-01T14:30:10.945Z,99045.52
2018-04-01T14:32:38.746Z,99046.59
2018-04-01T14:35:06.585Z,99047.44
2018-04-01T14:37:34.456Z,99059.30
2018-04-01T14:40:02.254Z,99062.06
2018-04-01T14:42:30.050Z,99056.80
2018-04-01T14:44:57.825Z,99062.73
2018-04-01T14:47:25.623Z,99070.27
2018-04-01T14:49:53.401Z,99068.52
2018-04-01T14:52:21.208Z,99075.80
2018-04-01T14:54:49.062Z,99076.91
2018-04-01T14:57:16.913Z,99078.29
2018-04-01T14:59:44.695Z,99077.91
2018-04-01T15:02:12.561Z,99077.81
2018-04-01T15:04:40.369Z,99080.05
2018-04-01T15:07:08.170Z,99082.05
2018-04-01T15:09:36.027Z,99074.45
2018-04-01T15:12:03.803Z,99081.80
2018-04-01T15:14:31.607Z,99082.09
2018-04-01T15:16:59.397Z,99071.87
2018-04-01T15:19:27.232Z,99082.21
2018-04-01T15:21:55.033Z,99081.80
2018-04-01T15:24:22.844Z,99079.14
2018-04-01T15:26:50.624Z,99078.48
2018-04-01T15:29:18.412Z,99092.28
2018-04-01T15:31:46.196Z,99093.62
2018-04-01T15:34:13.991Z,99089.64
2018-04-01T15:36:41.929Z,99095.98
2018-04-01T15:39:09.754Z,99096.82
2018-04-01T15:41:37.612Z,99095.49
2018-04-01T15:44:05.397Z,99095.09
2018-04-01T15:46:33.188Z,99092.56
2018-04-01T15:49:00.948Z,99098.03
2018-04-01T15:51:28.842Z,99096.42
2018-04-01T15:53:56.628Z,99104.27
2018-04-01T15:56:24.503Z,99110.66
2018-04-01T15:58:52.366Z,99117.30
2018-04-01T16:01:20.482Z,99111.06
2018-04-01T16:03:48.339Z,99113.94
2018-04-01T16:06:16.134Z,99112.23
2018-04-01T16:08:43.905Z,99121.94
2018-04-01T16:11:11.786Z,99125.53
2018-04-01T16:13:39.670Z,99119.55
2018-04-01T16:16:07.475Z,99128.04
2018-04-01T16:18:35.265Z,99121.66
2018-04-01T16:21:03.064Z,99128.16
2018-04-01T16:23:30.863Z,99132.01
2018-04-01T16:25:58.637Z,99134.80
2018-04-01T16:28:26.402Z,99134.16
2018-04-01T16:30:54.278Z,99137.85
2018-04-01T16:33:22.157Z,99142.09
2018-04-01T16:35:49.955Z,99154.31
2018-04-01T16:38:17.746Z,99151.38
2018-04-01T16:40:45.807Z,99149.80
2018-04-01T16:43:13.588Z,99150.34
2018-04-01T16:45:41.469Z,99161.73
2018-04-01T16:48:09.268Z,99154.56
2018-04-01T16:50:37.060Z,99159.62
2018-04-01T16:53:04.908Z,99157.62
2018-04-01T16:55:32.668Z,99163.75
2018-04-01T16:58:00.470Z,99165.72
2018-04-01T17:00:28.258Z,99168.66
2018-04-01T17:02:56.115Z,99179.53
2018-04-01T17:05:23.978Z,99182.83
2018-04-01T17:07:52.034Z,99187.09
2018-04-01T17:10:19.832Z,99179.78
2018-04-01T17:12:47.632Z,99187.89
2018-04-01T17:15:15.467Z,99178.73
2018-04-01T17:17:43.323Z,99184.44
2018-04-01T17:20:11.110Z,99188.42
2018-04-01T17:22:38.906Z,99197.03
2018-04-01T17:25:06.679Z,99203.80
2018-04-01T17:27:34.480Z,99203.27
2018-04-01T17:30:02.257Z,99209.50
2018-04-01T17:32:30.138Z,99221.45
2018-04-01T17:34:57.917Z,99216.92
2018-04-01T17:37:25.756Z,99225.66
2018-04-01T17:39:53.569Z,99235.05
2018-04-01T17:42:21.350Z,99228.14
2018-04-01T17:44:49.153Z,99236.98
2018-04-01T17:47:16.922Z,99239.13
2018-04-01T17:49:44.781Z,99241.88
2018-04-01T17:52:12.564Z,99252.72
2018-04-01T17:54:40.411Z,99245.30
2018-04-01T17:57:08.204Z,99251.27
2018-04-01T17:59:35.994Z,99261.34
2018-04-01T18:02:03.762Z,99264.63
2018-04-01T18:04:31.555Z,99273.77
2018-04-01T18:06:59.462Z,99283.02
2018-04-01T18:09:27.279Z,99285.11
2018-04-01T18:11:55.099Z,99297.54
2018-04-01T18:14:22.904Z,99299.00
2018-04-01T18:16:50.701Z,99302.34
2018-04-01T18:19:18.494Z,99304.95
2018-04-01T18:21:46.273Z,99313.27
2018-04-01T18:24:14.143Z,99317.23
2018-04-01T18:26:41.922Z,99316.13
2018-04-01T18:29:09.716Z,99322.95
2018-04-01T18:31:37.544Z,99330.85
2018-04-01T18:34:05.341Z,99326.88
2018-04-01T18:36:33.140Z,99331.13
2018-04-01T18:39:01.000Z,99326.16
2018-04-01T18:41:28.918Z,99321.37
2018-04-01T18:43:56.860Z,99337.63
2018-04-01T18:46:24.950Z,99341.62
2018-04-01T18:48:52.757Z,99341.34
2018-04-01T18:51:20.545Z,99345.18
2018-04-01T18:53:48.410Z,99338.95
2018-04-01T18:56:16.224Z,99346.80
2018-04-01T18:58:43.983Z,99350.42
2018-04-01T19:01:11.863Z,99345.71
2018-04-01T19:03:39.639Z,99352.33
2018-04-01T19:06:07.527Z,99355.80
2018-04-01T19:08:35.423Z,99353.05
2018-04-01T19:11:03.232Z,99356.06
2018-04-01T19:13:31.004Z,99365.06
2018-04-01T19:15:59.348Z,99358.94
2018-04-01T19:18:27.732Z,99356.77
2018-04-01T19:20:56.111Z,99364.19
2018-04-01T19:23:24.438Z,99369.72
2018-04-01T19:25:53.179Z,99370.52
2018-04-01T19:28:22.349Z,99368.95
2018-04-01T19:30:50.697Z,99378.24
2018-04-01T19:33:19.065Z,99377.41
2018-04-01T19:35:47.401Z,99383.73
2018-04-01T19:38:15.751Z,99381.32
2018-04-01T19:40:44.060Z,99382.62
2018-04-01T19:43:12.406Z,99383.59
2018-04-01T19:45:40.733Z,99385.08
2018-04-01T19:48:09.142Z,99386.70
2018-04-01T19:50:37.524Z,99389.77
2018-04-01T19:53:05.938Z,99391.75
2018-04-01T19:55:34.304Z,99397.34
2018-04-01T19:58:02.635Z,99393.63
2018-04-01T20:00:30.957Z,99397.22
2018-04-01T20:02:59.296Z,99398.17
2018-04-01T20:05:27.635Z,99403.77
2018-04-01T20:07:55.952Z,99400.47
2018-04-01T20:10:24.304Z,99405.00
2018-04-01T20:12:52.623Z,99414.97
2018-04-01T20:15:20.940Z,99411.49
2018-04-01T20:17:49.343Z,99417.48
2018-04-01T20:20:17.690Z,99414.59
2018-04-01T20:22:46.021Z,99416.70
2018-04-01T20:25:14.575Z,99413.69
2018-04-01T20:27:42.955Z,99427.77
2018-04-01T20:30:11.264Z,99423.40
2018-04-01T20:32:39.594Z,99419.82
2018-04-01T20:35:07.944Z,99423.05
2018-04-01T20:37:36.246Z,99423.58
2018-04-01T20:40:04.597Z,99427.39
2018-04-01T20:42:32.926Z,99432.98
2018-04-01T20:45:01.261Z,99437.25
2018-04-01T20:47:29.638Z,99438.11
2018-04-01T20:49:58.980Z,99443.66
2018-04-01T20:52:27.484Z,99445.18
2018-04-01T20:54:56.853Z,99445.71
2018-04-01T20:57:25.212Z,99448.86
2018-04-01T20:59:53.531Z,99455.64
2018-04-01T21:02:21.889Z,99454.61
2018-04-01T21:04:50.215Z,99454.36
2018-04-01T21:07:18.620Z,99455.29
2018-04-01T21:09:46.969Z,99457.68
2018-04-01T21:12:15.341Z,99459.01
2018-04-01T21:14:44.063Z,99464.57
2018-04-01T21:17:12.454Z,99474.82
2018-04-01T21:19:41.016Z,99471.86
2018-04-01T21:22:09.489Z,99469.30
2018-04-01T21:24:37.995Z,99473.11
2018-04-01T21:27:06.832Z,99471.86
2018-04-01T21:29:35.381Z,99467.89
2018-04-01T21:32:03.857Z,99471.39
2018-04-01T21:34:32.390Z,99481.89
2018-04-01T21:37:00.732Z,99474.30
2018-04-01T21:39:29.161Z,99479.12
2018-04-01T21:41:57.604Z,99483.49
2018-04-01T21:44:26.007Z,99491.20
2018-04-01T21:46:54.464Z,99485.42
2018-04-01T21:49:22.876Z,99492.08
2018-04-01T21:51:51.279Z,99490.38
2018-04-01T21:54:32.418Z,99488.50
2018-04-01T21:57:00.746Z,99498.56
2018-04-01T21:59:29.076Z,99498.67
2018-04-01T22:01:57.422Z,99499.86
2018-04-01T22:04:25.863Z,99504.32
2018-04-01T22:06:54.274Z,99506.20
2018-04-01T22:09:22.701Z,99499.76
2018-04-01T22:11:51.151Z,99506.41
2018-04-01T22:14:19.706Z,99504.89
2018-04-01T22:16:50.134Z,99511.19
2018-04-01T22:19:18.523Z,99511.16
2018-04-01T22:21:46.988Z,99509.25
2018-04-01T22:24:15.315Z,99511.63
2018-04-01T22:26:43.789Z,99517.75
2018-04-01T22:29:12.120Z,99515.18
2018-04-01T22:31:40.447Z,99515.59
2018-04-01T22:34:08.846Z,99515.75
2018-04-01T22:36:37.172Z,99511.97
2018-04-01T22:39:06.451Z,99520.37
2018-04-01T22:41:34.832Z,99515.60
2018-04-01T22:44:03.144Z,99527.45
2018-04-01T22:46:31.516Z,99518.57
2018-04-01T22:48:59.794Z,99525.27
2018-04-01T22:51:28.189Z,99524.38
2018-04-01T22:53:56.581Z,99526.41
2018-04-01T22:56:24.981Z,99532.48
2018-04-01T22:58:53.393Z,99532.22
2018-04-01T23:01:21.768Z,99532.88
2018-04-01T23:03:50.097Z,99532.96
2018-04-01T23:06:18.511Z,99537.33
2018-04-01T23:08:46.892Z,99539.83
2018-04-01T23:11:15.221Z,99547.51
2018-04-01T23:13:43.604Z,99544.25
2018-04-01T23:16:11.996Z,99545.78
2018-04-01T23:18:40.329Z,99542.94
2018-04-01T23:21:08.654Z,99552.03
2018-04-01T23:23:37.089Z,99554.52
2018-04-01T23:26:05.418Z,99550.36
2018-04-01T23:28:33.752Z,99552.19
2018-04-01T23:31:02.069Z,99560.17
2018-04-01T23:33:30.380Z,99555.55
2018-04-01T23:35:58.762Z,99560.84
2018-04-01T23:38:27.089Z,99561.12
2018-04-01T23:40:55.469Z,99560.29
2018-04-01T23:43:23.799Z,99561.98
2018-04-01T23:45:52.106Z,99566.11
2018-04-01T23:48:20.476Z,99564.70
2018-04-01T23:50:48.978Z,99557.91
2018-04-01T23:53:17.396Z,99560.37
2018-04-01T23:55:45.769Z,99564.14
2018-04-01T23:58:14.172Z,99580.25
